Time;durP1;ratioP1;P1;durP2;ratioP2;P2;SDS_P1;SDS_P2;PMS_P1;PMS_P2;Temp;Humidity;BMP_temperature;BMP_pressure;BME280_temperature;BME280_humidity;BME280_pressure;Samples;Min_cycle;Max_cycle;Signal;HPM_P1;HPM_P2
2021/08/05 00:01:33;;;;;;;6.73;5.40;;;;;;;14.37;95.90;100509.08;124971;1093;64289;-79
2021/08/05 00:04:00;;;;;;;7.50;4.70;;;;;;;14.36;96.04;100497.55;124769;1093;64421;-77
2021/08/05 00:06:28;;;;;;;8.60;5.70;;;;;;;14.37;96.19;100496.55;124891;1093;64245;-79
2021/08/05 00:08:55;;;;;;;5.73;5.13;;;;;;;14.39;95.84;100504.35;125005;1093;64291;-77
2021/08/05 00:11:22;;;;;;;7.57;4.93;;;;;;;14.38;95.94;100505.36;124773;1092;64291;-79
2021/08/05 00:13:49;;;;;;;7.23;5.33;;;;;;;14.38;95.92;100510.70;124978;1093;64371;-79
2021/08/05 00:16:16;;;;;;;5.67;4.50;;;;;;;14.39;96.26;100501.69;124896;1093;64556;-78
2021/08/05 00:18:43;;;;;;;7.57;5.83;;;;;;;14.36;95.59;100502.89;125000;1093;64214;-79
2021/08/05 00:21:10;;;;;;;7.87;5.63;;;;;;;14.36;96.25;100496.73;124964;1093;64274;-79
2021/08/05 00:23:38;;;;;;;5.60;4.80;;;;;;;14.36;96.18;100494.08;124970;1093;64530;-77
2021/08/05 00:26:05;;;;;;;8.20;5.40;;;;;;;14.34;96.28;100488.93;124981;1093;64192;-78
2021/08/05 00:28:33;;;;;;;7.10;5.73;;;;;;;14.32;95.77;100488.31;124909;1093;64368;-78
2021/08/05 00:31:00;;;;;;;12.83;5.40;;;;;;;14.27;95.09;100478.26;124815;1093;64359;-79
2021/08/05 00:33:28;;;;;;;8.73;4.80;;;;;;;14.21;95.00;100484.41;125003;1092;64294;-78
2021/08/05 00:35:55;;;;;;;6.07;4.23;;;;;;;14.16;94.90;100484.21;124809;1093;64221;-77
2021/08/05 00:38:22;;;;;;;6.77;4.70;;;;;;;14.14;95.25;100488.11;124806;1093;64310;-78
2021/08/05 00:40:49;;;;;;;7.00;4.37;;;;;;;14.12;95.44;100490.97;125446;1092;64330;-77
2021/08/05 00:43:16;;;;;;;7.43;4.90;;;;;;;14.11;95.69;100489.34;125322;1093;64230;-78
2021/08/05 00:45:43;;;;;;;8.33;5.30;;;;;;;14.12;95.72;100485.64;124989;1093;64277;-83
2021/08/05 00:48:10;;;;;;;7.10;5.40;;;;;;;14.10;95.75;100487.69;124990;1093;64216;-78
2021/08/05 00:50:37;;;;;;;7.00;5.10;;;;;;;14.08;95.96;100482.55;124971;1093;64294;-78
2021/08/05 00:53:05;;;;;;;6.57;5.10;;;;;;;14.07;96.35;100478.25;124804;1092;64358;-78
2021/08/05 00:55:33;;;;;;;11.55;5.70;;;;;;;14.08;96.41;100479.06;124946;1093;64963;-74
2021/08/05 00:58:00;;;;;;;6.70;5.10;;;;;;;14.08;96.44;100473.73;124913;1093;64269;-79
2021/08/05 01:00:29;;;;;;;7.00;5.33;;;;;;;14.07;96.67;100475.59;124776;1093;64211;-78
2021/08/05 01:03:05;;;;;;;16.30;5.60;;;;;;;14.07;96.12;100475.59;124992;1093;64268;-78
2021/08/05 01:05:38;;;;;;;8.57;5.10;;;;;;;14.06;96.03;100462.44;124779;1093;64426;-79
2021/08/05 01:08:11;;;;;;;6.93;4.10;;;;;;;14.00;95.44;100466.73;125174;1093;64304;-78
2021/08/05 01:10:55;;;;;;;4.67;3.83;;;;;;;13.92;94.72;100474.11;125060;1092;64310;-80
2021/08/05 01:13:36;;;;;;;8.17;4.90;;;;;;;13.80;94.78;100464.05;124998;1093;64317;-79
2021/08/05 01:16:12;;;;;;;6.97;4.40;;;;;;;13.71;94.60;100467.93;124991;1093;64770;-80
2021/08/05 01:18:40;;;;;;;6.45;4.30;;;;;;;13.65;95.46;100464.21;125045;1093;64313;-79
2021/08/05 01:21:56;;;;;;;5.47;4.50;;;;;;;13.63;96.06;100462.77;124807;1093;64339;-79
2021/08/05 01:24:26;;;;;;;4.97;4.13;;;;;;;13.59;96.05;100464.20;124768;1093;64220;-79
2021/08/05 01:26:58;;;;;;;8.77;4.17;;;;;;;13.56;95.66;100475.27;124957;1093;65080;-79
2021/08/05 01:29:27;;;;;;;5.57;4.03;;;;;;;13.50;95.66;100481.39;125009;1093;64244;-79
2021/08/05 01:31:55;;;;;;;4.77;3.70;;;;;;;13.45;95.80;100480.14;124771;1093;64342;-78
2021/08/05 01:34:23;;;;;;;3.93;3.43;;;;;;;13.41;95.90;100467.42;125086;1093;64272;-79
2021/08/05 01:36:52;;;;;;;8.90;3.37;;;;;;;13.35;95.76;100474.36;124984;1093;64342;-80
2021/08/05 01:39:19;;;;;;;5.00;3.60;;;;;;;13.29;96.22;100469.82;124943;1093;64690;-75
2021/08/05 01:41:48;;;;;;;7.27;5.07;;;;;;;13.28;96.86;100465.47;124771;1093;64281;-77
2021/08/05 01:44:17;;;;;;;6.37;5.13;;;;;;;13.26;97.38;100463.02;124772;1092;64877;-80
2021/08/05 01:46:45;;;;;;;7.00;5.47;;;;;;;13.25;97.56;100464.03;124801;1093;64613;-77
2021/08/05 01:49:15;;;;;;;7.80;5.67;;;;;;;13.29;98.28;100466.34;125001;1093;64157;-78
2021/08/05 01:51:43;;;;;;;5.87;4.47;;;;;;;13.29;97.92;100469.00;124863;1092;64361;-77
2021/08/05 01:54:11;;;;;;;7.70;5.40;;;;;;;13.26;97.73;100465.69;124924;1093;64367;-75
2021/08/05 01:56:38;;;;;;;6.23;4.90;;;;;;;13.27;98.28;100469.16;124757;1093;64242;-77
2021/08/05 01:59:05;;;;;;;8.73;5.37;;;;;;;13.29;98.07;100469.82;124918;1093;64277;-77
2021/08/05 02:01:32;;;;;;;7.70;5.10;;;;;;;13.28;97.96;100462.80;124831;1093;64365;-79
2021/08/05 02:04:15;;;;;;;8.17;6.47;;;;;;;13.29;98.20;100463.68;124798;1093;64207;-78
2021/08/05 02:06:56;;;;;;;7.87;5.63;;;;;;;13.30;98.77;100459.98;124829;1093;65465;-81
2021/08/05 02:09:40;;;;;;;7.00;5.17;;;;;;;13.32;98.74;100452.61;125309;1093;64278;-78
2021/08/05 02:12:07;;;;;;;14.53;6.70;;;;;;;13.31;98.19;100449.13;124891;1092;64203;-79
2021/08/05 02:14:36;;;;;;;8.10;5.80;;;;;;;13.27;98.26;100445.19;124974;1093;64641;-79
2021/08/05 02:17:07;;;;;;;8.93;6.83;;;;;;;13.25;98.37;100448.05;125022;1093;64249;-78
2021/08/05 02:19:35;;;;;;;10.57;7.10;;;;;;;13.25;98.56;100455.22;125016;1093;64236;-77
2021/08/05 02:22:03;;;;;;;11.83;8.10;;;;;;;13.25;98.72;100441.91;124804;1092;64240;-77
2021/08/05 02:24:32;;;;;;;8.57;7.07;;;;;;;13.22;98.91;100439.65;125097;1093;64293;-80
2021/08/05 02:27:00;;;;;;;8.23;6.97;;;;;;;13.22;98.72;100447.64;125033;1093;64277;-77
2021/08/05 02:29:28;;;;;;;7.90;6.47;;;;;;;13.21;98.42;100440.66;124980;1093;64217;-80
2021/08/05 02:31:57;;;;;;;8.83;7.10;;;;;;;13.20;98.81;100439.02;125006;1093;64397;-80
2021/08/05 02:34:25;;;;;;;9.30;6.47;;;;;;;13.22;99.29;100429.00;125117;1093;64192;-75
2021/08/05 02:36:53;;;;;;;8.47;6.00;;;;;;;13.23;99.44;100434.10;125049;1093;64268;-79
2021/08/05 02:39:21;;;;;;;7.07;6.10;;;;;;;13.21;98.92;100433.48;124883;1093;64277;-78
2021/08/05 02:41:49;;;;;;;8.57;6.43;;;;;;;13.20;98.96;100434.52;124946;1093;64297;-79
2021/08/05 02:44:17;;;;;;;9.03;6.13;;;;;;;13.20;99.14;100423.86;124960;1093;64306;-82
2021/08/05 02:46:47;;;;;;;7.30;6.27;;;;;;;13.22;99.48;100427.14;125138;1093;64342;-78
2021/08/05 02:49:16;;;;;;;6.80;6.00;;;;;;;13.22;98.88;100427.14;125040;1093;64272;-78
2021/08/05 02:51:46;;;;;;;7.77;5.87;;;;;;;13.23;99.43;100428.77;124833;1093;64864;-78
2021/08/05 02:54:16;;;;;;;7.43;5.40;;;;;;;13.22;98.84;100429.81;125060;1093;65466;-78
2021/08/05 02:56:44;;;;;;;7.90;6.10;;;;;;;13.24;99.27;100432.28;124799;1093;64284;-79
2021/08/05 02:59:12;;;;;;;8.43;5.93;;;;;;;13.26;99.60;100432.91;125016;1093;64198;-79
2021/08/05 03:01:40;;;;;;;7.83;4.93;;;;;;;13.24;98.52;100433.09;124922;1092;64268;-79
2021/08/05 03:04:11;;;;;;;8.63;4.17;;;;;;;13.18;97.71;100441.06;125055;1093;64243;-78
2021/08/05 03:06:40;;;;;;;4.13;3.70;;;;;;;13.12;98.00;100436.53;125308;1093;64259;-79
2021/08/05 03:09:08;;;;;;;5.30;3.60;;;;;;;13.05;97.86;100437.31;125479;1092;64288;-79
2021/08/05 03:11:35;;;;;;;4.10;3.47;;;;;;;12.99;97.29;100438.09;124929;1093;64419;-78
2021/08/05 03:14:02;;;;;;;4.37;3.97;;;;;;;12.92;97.60;100439.07;124990;1093;64246;-78
2021/08/05 03:16:29;;;;;;;7.47;4.20;;;;;;;12.88;97.87;100436.00;124990;1093;64268;-81
2021/08/05 03:18:56;;;;;;;6.50;4.10;;;;;;;12.86;98.24;100419.41;125058;1092;64266;-77
2021/08/05 03:21:23;;;;;;;4.00;3.60;;;;;;;12.85;98.72;100423.06;124836;1093;64864;-80
2021/08/05 03:23:50;;;;;;;6.70;4.57;;;;;;;12.86;98.68;100427.39;124981;1092;64233;-78
2021/08/05 03:26:17;;;;;;;7.20;5.00;;;;;;;12.87;98.87;100423.69;125007;1092;64272;-80
2021/08/05 03:28:45;;;;;;;6.00;5.00;;;;;;;12.89;98.99;100420.84;125038;1093;64285;-78
2021/08/05 03:31:12;;;;;;;7.10;5.30;;;;;;;12.93;99.53;100422.91;124925;1093;64275;-78
2021/08/05 03:33:39;;;;;;;6.47;4.93;;;;;;;12.96;99.41;100417.20;124955;1093;64195;-77
2021/08/05 03:36:06;;;;;;;5.30;4.33;;;;;;;12.96;98.90;100425.19;124987;1093;64316;-79
2021/08/05 03:38:33;;;;;;;5.20;4.13;;;;;;;12.99;99.19;100422.13;125031;1093;64344;-78
2021/08/05 03:41:04;;;;;;;6.77;5.43;;;;;;;13.01;99.61;100422.75;125108;1093;64283;-83
2021/08/05 03:43:33;;;;;;;7.77;4.93;;;;;;;13.05;100.00;100424.00;125001;1093;64272;-79
2021/08/05 03:46:00;;;;;;;6.17;5.00;;;;;;;13.11;99.41;100424.21;125100;1092;64272;-77
2021/08/05 03:48:27;;;;;;;7.97;5.23;;;;;;;13.14;99.26;100419.32;124946;1093;64416;-79
2021/08/05 03:50:54;;;;;;;5.90;4.85;;;;;;;13.17;99.24;100418.09;125004;1093;64249;-79
2021/08/05 03:53:22;;;;;;;8.63;5.03;;;;;;;13.17;98.80;100418.09;124924;1093;64284;-78
2021/08/05 03:55:49;;;;;;;7.10;5.60;;;;;;;13.17;98.81;100418.91;124692;1093;64288;-77
2021/08/05 03:58:16;;;;;;;7.10;5.70;;;;;;;13.18;98.85;100414.43;124920;1093;64272;-76
2021/08/05 04:00:43;;;;;;;7.97;5.37;;;;;;;13.17;98.67;100412.77;124894;1093;64199;-79
2021/08/05 04:03:10;;;;;;;9.23;5.23;;;;;;;13.18;98.75;100422.42;124873;1093;64410;-74
2021/08/05 04:05:38;;;;;;;8.47;5.30;;;;;;;13.16;98.71;100413.80;124916;1093;64284;-79
2021/08/05 04:08:05;;;;;;;7.77;5.50;;;;;;;13.18;98.66;100411.77;124826;1093;64313;-79
2021/08/05 04:10:32;;;;;;;7.70;6.35;;;;;;;13.20;98.79;100405.22;124764;1092;65366;-78
2021/08/05 04:12:59;;;;;;;7.50;5.60;;;;;;;13.22;98.82;100411.16;124786;1093;64276;-77
2021/08/05 04:15:26;;;;;;;8.03;5.57;;;;;;;13.26;98.83;100400.94;124991;1093;64323;-79
2021/08/05 04:17:54;;;;;;;8.40;5.33;;;;;;;13.30;99.02;100396.86;124798;1093;64368;-79
2021/08/05 04:20:21;;;;;;;10.13;5.47;;;;;;;13.33;98.97;100395.66;124956;1093;64790;-77
2021/08/05 04:22:49;;;;;;;7.23;4.97;;;;;;;13.36;99.13;100412.05;124803;1093;64365;-80
2021/08/05 04:25:17;;;;;;;9.67;5.90;;;;;;;13.42;99.18;100407.77;124764;1093;65058;-81
2021/08/05 04:27:44;;;;;;;7.70;6.30;;;;;;;13.45;99.04;100410.87;125792;1093;64200;-77
2021/08/05 04:30:13;;;;;;;7.80;5.80;;;;;;;13.49;99.02;100411.27;124735;1093;64250;-79
2021/08/05 04:32:42;;;;;;;7.07;5.47;;;;;;;13.53;99.23;100399.19;124751;1093;64360;-75
2021/08/05 04:35:11;;;;;;;11.10;5.80;;;;;;;13.57;98.92;100402.27;124807;1093;64198;-77
2021/08/05 04:37:54;;;;;;;8.03;5.50;;;;;;;13.59;98.51;100405.56;124753;1093;64249;-79
2021/08/05 04:40:23;;;;;;;7.37;5.93;;;;;;;13.62;99.02;100400.66;124833;1093;64284;-79
2021/08/05 04:42:51;;;;;;;7.67;6.50;;;;;;;13.67;98.80;100392.05;124857;1093;64291;-78
2021/08/05 04:45:20;;;;;;;8.57;6.63;;;;;;;13.74;99.24;100397.38;124907;1092;64192;-78
2021/08/05 04:47:55;;;;;;;8.17;6.30;;;;;;;13.79;99.30;100401.09;124955;1093;64298;-79
2021/08/05 04:50:25;;;;;;;7.20;5.80;;;;;;;13.86;99.12;100407.25;124814;1093;64342;-77
2021/08/05 04:52:53;;;;;;;8.83;6.50;;;;;;;13.93;98.95;100398.44;124772;1093;64430;-79
2021/08/05 04:55:20;;;;;;;8.87;6.77;;;;;;;13.98;98.62;100399.47;124874;1093;64364;-77
2021/08/05 04:57:52;;;;;;;8.07;5.83;;;;;;;14.06;98.35;100401.09;124781;1092;64265;-77
2021/08/05 05:00:25;;;;;;;6.53;4.87;;;;;;;14.09;98.00;100395.37;124783;1093;64273;-78
2021/08/05 05:02:53;;;;;;;7.83;5.93;;;;;;;14.14;97.93;100402.75;124854;1092;64321;-79
2021/08/05 05:05:22;;;;;;;8.63;7.50;;;;;;;14.16;97.71;100395.36;124820;1093;64346;-79
2021/08/05 05:07:50;;;;;;;10.30;6.23;;;;;;;14.17;97.34;100397.80;124907;1093;64852;-79
2021/08/05 05:10:19;;;;;;;9.25;6.10;;;;;;;14.22;97.63;100399.88;124882;1092;64313;-79
2021/08/05 05:12:46;;;;;;;7.90;6.40;;;;;;;14.25;97.39;100400.27;124875;1093;64285;-79
2021/08/05 05:15:15;;;;;;;8.47;6.20;;;;;;;14.31;97.52;100397.82;124790;1092;64195;-78
2021/08/05 05:17:45;;;;;;;6.97;6.23;;;;;;;14.38;97.62;100387.95;124791;1093;64278;-77
2021/08/05 05:20:13;;;;;;;8.63;6.03;;;;;;;14.44;96.69;100387.94;124833;1093;64275;-77
2021/08/05 05:22:40;;;;;;;7.73;5.73;;;;;;;14.47;96.81;100392.03;124767;1093;64850;-78
2021/08/05 05:25:10;;;;;;;12.03;6.60;;;;;;;14.52;96.51;100376.23;124914;1093;64275;-78
2021/08/05 05:27:38;;;;;;;8.60;4.73;;;;;;;14.57;96.66;100379.11;124797;1093;64956;-77
2021/08/05 05:30:06;;;;;;;7.37;5.60;;;;;;;14.63;96.28;100372.13;125091;1093;64163;-80
2021/08/05 05:32:33;;;;;;;6.03;5.40;;;;;;;14.68;96.29;100377.64;124838;1092;64389;-78
2021/08/05 05:35:00;;;;;;;11.07;5.47;;;;;;;14.71;95.89;100379.09;124877;1093;64680;-78
2021/08/05 05:37:27;;;;;;;9.73;6.47;;;;;;;14.76;95.83;100379.28;124854;1093;64323;-78
2021/08/05 05:39:55;;;;;;;6.90;5.93;;;;;;;14.85;96.27;100378.00;124979;1093;64271;-79
2021/08/05 05:42:23;;;;;;;9.63;6.00;;;;;;;14.91;95.51;100371.02;124979;1092;64275;-79
2021/08/05 05:44:52;;;;;;;8.90;5.87;;;;;;;14.97;95.97;100365.64;124783;1093;64375;-78
2021/08/05 05:47:19;;;;;;;7.93;6.70;;;;;;;15.05;95.58;100368.07;124912;1093;64291;-80
2021/08/05 05:49:47;;;;;;;8.43;6.27;;;;;;;15.14;95.51;100359.82;125049;1093;64660;-80
2021/08/05 05:52:14;;;;;;;7.73;5.03;;;;;;;15.19;94.75;100351.97;124734;1093;64197;-78
2021/08/05 05:54:43;;;;;;;9.60;6.60;;;;;;;15.22;94.51;100363.06;125015;1093;64281;-77
2021/08/05 05:57:11;;;;;;;7.40;6.23;;;;;;;15.27;94.45;100368.57;125002;1093;64362;-78
2021/08/05 05:59:40;;;;;;;8.13;5.23;;;;;;;15.33;94.58;100369.58;125073;1093;64272;-78
2021/08/05 06:02:07;;;;;;;7.37;5.90;;;;;;;15.37;94.29;100368.13;125045;1093;64192;-77
2021/08/05 06:04:35;;;;;;;7.85;6.00;;;;;;;15.44;93.90;100365.41;124942;1093;64346;-81
2021/08/05 06:07:03;;;;;;;7.50;6.10;;;;;;;15.47;94.02;100376.49;124746;1092;64355;-77
2021/08/05 06:09:30;;;;;;;6.67;5.20;;;;;;;15.50;93.06;100373.38;124913;1093;64300;-79
2021/08/05 06:11:57;;;;;;;6.73;5.03;;;;;;;15.54;93.32;100370.30;124920;1093;64214;-78
2021/08/05 06:14:24;;;;;;;7.53;5.30;;;;;;;15.59;93.52;100370.45;124972;1093;64263;-81
2021/08/05 06:16:52;;;;;;;8.63;6.37;;;;;;;15.65;93.43;100369.59;124815;1093;64416;-80
2021/08/05 06:19:19;;;;;;;5.30;4.63;;;;;;;15.74;92.98;100375.52;124894;1093;64310;-79
2021/08/05 06:21:46;;;;;;;6.67;5.20;;;;;;;15.77;92.76;100381.27;124874;1093;64291;-80
2021/08/05 06:24:14;;;;;;;6.30;4.00;;;;;;;15.81;92.39;100373.61;124968;1093;64272;-77
2021/08/05 06:26:42;;;;;;;6.30;5.10;;;;;;;15.81;92.13;100373.61;124955;1093;64980;-79
2021/08/05 06:29:10;;;;;;;7.87;4.70;;;;;;;15.84;92.04;100376.67;125017;1093;64268;-80
2021/08/05 06:31:37;;;;;;;6.47;4.33;;;;;;;15.85;91.39;100374.81;125060;1093;64214;-78
2021/08/05 06:34:05;;;;;;;9.00;4.30;;;;;;;15.87;91.67;100378.09;125596;1093;64339;-79
2021/08/05 06:36:32;;;;;;;7.17;4.47;;;;;;;15.89;91.82;100379.50;125021;1093;64285;-79
2021/08/05 06:38:59;;;;;;;7.00;5.40;;;;;;;15.94;91.27;100386.06;125199;1093;64195;-78
2021/08/05 06:41:26;;;;;;;5.87;4.30;;;;;;;15.93;90.67;100387.11;127238;1093;64790;-75
2021/08/05 06:43:53;;;;;;;7.73;4.77;;;;;;;15.93;91.10;100385.25;126374;1093;64280;-77
2021/08/05 06:46:20;;;;;;;7.90;5.33;;;;;;;15.98;91.54;100387.27;125100;1092;64240;-77
2021/08/05 06:48:48;;;;;;;7.93;5.30;;;;;;;16.03;91.17;100384.77;125130;1093;64338;-77
2021/08/05 06:51:15;;;;;;;13.73;6.33;;;;;;;16.06;91.05;100392.34;125035;1093;64246;-79
2021/08/05 06:53:42;;;;;;;9.13;4.70;;;;;;;16.08;90.65;100384.92;124852;1092;64336;-79
2021/08/05 06:56:09;;;;;;;7.13;4.80;;;;;;;16.11;91.10;100387.18;124839;1093;64234;-80
2021/08/05 06:58:37;;;;;;;5.93;4.80;;;;;;;16.15;90.81;100391.06;125021;1093;64306;-79
2021/08/05 07:01:04;;;;;;;6.90;4.03;;;;;;;16.22;91.00;100393.67;124928;1093;64358;-78
2021/08/05 07:03:31;;;;;;;4.77;4.07;;;;;;;16.29;90.81;100389.88;124795;1093;64291;-78
2021/08/05 07:05:58;;;;;;;6.15;5.20;;;;;;;16.34;90.87;100391.89;124993;1093;64406;-78
2021/08/05 07:08:25;;;;;;;4.80;3.47;;;;;;;16.40;90.29;100384.84;125016;1093;64368;-80
2021/08/05 07:10:52;;;;;;;7.10;5.13;;;;;;;16.42;90.27;100390.80;125039;1093;64230;-80
2021/08/05 07:13:19;;;;;;;6.83;4.70;;;;;;;16.49;90.49;100389.70;125016;1093;64292;-78
2021/08/05 07:15:47;;;;;;;5.80;4.20;;;;;;;16.55;90.32;100377.27;125156;1093;64272;-78
2021/08/05 07:18:43;;;;;;;;;;;;;;;;;;;;;
2021/08/05 07:21:11;;;;;;;7.47;5.60;;;;;;;16.78;90.07;100391.88;124998;1093;64252;-79
2021/08/05 07:23:38;;;;;;;7.50;5.77;;;;;;;16.87;89.75;100387.88;124850;1093;64355;-77
2021/08/05 07:26:05;;;;;;;8.03;4.57;;;;;;;16.95;88.84;100390.25;124836;1093;64883;-78
2021/08/05 07:28:35;;;;;;;6.13;4.63;;;;;;;16.99;88.83;100391.45;124978;1093;64272;-78
2021/08/05 07:31:03;;;;;;;9.37;4.23;;;;;;;17.04;88.48;100391.61;125001;1093;64422;-79
2021/08/05 07:33:30;;;;;;;5.50;4.30;;;;;;;17.07;88.29;100388.46;124997;1093;64349;-78
2021/08/05 07:35:57;;;;;;;7.63;4.93;;;;;;;17.14;88.32;100393.73;125067;1093;64269;-78
2021/08/05 07:38:24;;;;;;;5.80;4.10;;;;;;;17.21;87.82;100399.01;125000;1093;64268;-79
2021/08/05 07:40:51;;;;;;;7.17;5.43;;;;;;;17.24;87.76;100391.34;124980;1093;64306;-80
2021/08/05 07:43:18;;;;;;;5.70;5.10;;;;;;;17.32;87.77;100392.91;124947;1093;64419;-78
2021/08/05 07:45:45;;;;;;;5.37;3.50;;;;;;;17.41;87.28;100388.84;124917;1093;64269;-76
2021/08/05 07:48:12;;;;;;;7.03;5.10;;;;;;;17.45;87.24;100392.71;124978;1093;64291;-79
2021/08/05 07:50:39;;;;;;;7.97;5.17;;;;;;;17.49;87.17;100380.48;125014;1092;64246;-77
2021/08/05 07:53:06;;;;;;;6.37;4.60;;;;;;;17.57;87.11;100386.56;124689;1093;64245;-78
2021/08/05 07:55:34;;;;;;;6.20;5.60;;;;;;;17.65;87.11;100386.23;124717;1093;64708;-79
2021/08/05 07:58:04;;;;;;;6.40;4.63;;;;;;;17.73;86.39;100388.59;124962;1093;64262;-79
2021/08/05 08:00:35;;;;;;;6.27;4.37;;;;;;;17.78;86.25;100375.30;125004;1092;64271;-78
2021/08/05 08:03:03;;;;;;;6.67;5.47;;;;;;;17.90;86.18;100383.41;124960;1093;64168;-80
2021/08/05 08:05:32;;;;;;;4.47;3.80;;;;;;;18.00;85.49;100388.19;124905;1092;64288;-77
2021/08/05 08:08:00;;;;;;;6.50;4.40;;;;;;;18.04;85.29;100386.69;124948;1093;64298;-78
2021/08/05 08:10:27;;;;;;;7.25;4.20;;;;;;;18.06;84.99;100381.91;124955;1092;64199;-79
2021/08/05 08:13:14;;;;;;;6.57;4.33;;;;;;;18.07;84.19;100388.92;124887;1092;64288;-80
2021/08/05 08:15:42;;;;;;;5.87;4.97;;;;;;;18.08;84.37;100380.61;125034;1093;64271;-79
2021/08/05 08:18:09;;;;;;;7.13;5.10;;;;;;;18.14;84.61;100384.25;124929;1092;64282;-80
2021/08/05 08:20:36;;;;;;;6.03;4.80;;;;;;;18.23;84.21;100388.21;124849;1092;64380;-75
2021/08/05 08:23:04;;;;;;;7.50;6.17;;;;;;;18.28;83.88;100382.98;124949;1092;64208;-79
2021/08/05 08:25:32;;;;;;;4.90;4.33;;;;;;;18.38;83.69;100384.25;125118;1093;64371;-78
2021/08/05 08:27:59;;;;;;;5.87;4.60;;;;;;;18.43;82.82;100374.45;125134;1093;64265;-78
2021/08/05 08:30:26;;;;;;;6.40;4.60;;;;;;;18.58;83.11;100383.91;124977;1093;64272;-80
2021/08/05 08:32:53;;;;;;;7.70;5.93;;;;;;;18.68;82.28;100384.94;125007;1093;64272;-78
2021/08/05 08:35:21;;;;;;;6.17;4.90;;;;;;;18.81;81.83;100378.52;124941;1093;64234;-78
2021/08/05 08:37:48;;;;;;;10.87;6.57;;;;;;;18.86;81.99;100375.92;124769;1092;65068;-77
2021/08/05 08:40:16;;;;;;;6.83;5.63;;;;;;;18.99;81.68;100382.09;124825;1093;64361;-78
2021/08/05 08:42:44;;;;;;;8.90;5.93;;;;;;;19.02;80.45;100379.75;124978;1092;64288;-78
2021/08/05 08:45:14;;;;;;;7.67;5.13;;;;;;;19.09;80.84;100380.42;125047;1092;64316;-81
2021/08/05 08:47:46;;;;;;;5.35;4.50;;;;;;;19.17;80.62;100373.02;124999;1093;64272;-79
2021/08/05 08:50:16;;;;;;;8.00;5.77;;;;;;;19.28;80.39;100374.86;125109;1093;64285;-79
2021/08/05 08:52:45;;;;;;;9.27;5.83;;;;;;;19.44;80.03;100370.56;124787;1092;64764;-77
2021/08/05 08:55:14;;;;;;;7.33;5.03;;;;;;;19.53;77.96;100366.45;124891;1093;65475;-78
2021/08/05 08:57:42;;;;;;;7.43;5.00;;;;;;;19.62;78.36;100367.67;125004;1093;64373;-78
2021/08/05 09:00:11;;;;;;;8.40;6.27;;;;;;;19.73;78.58;100364.12;125138;1092;64269;-80
2021/08/05 09:02:38;;;;;;;9.17;5.60;;;;;;;19.84;77.59;100362.41;124888;1092;64342;-78
2021/08/05 09:05:07;;;;;;;11.07;6.27;;;;;;;19.97;77.59;100363.95;124841;1093;64269;-80
2021/08/05 09:07:34;;;;;;;8.73;5.70;;;;;;;20.21;76.88;100364.61;124912;1093;64275;-79
2021/08/05 09:10:01;;;;;;;10.50;6.80;;;;;;;20.41;76.92;100355.19;124939;1091;64387;-78
2021/08/05 09:12:29;;;;;;;10.77;7.07;;;;;;;20.55;75.47;100354.58;125045;1092;64252;-78
2021/08/05 09:14:56;;;;;;;8.17;6.10;;;;;;;20.69;73.58;100365.81;124959;1093;64310;-79
2021/08/05 09:17:27;;;;;;;8.60;6.03;;;;;;;20.71;72.92;100360.99;124865;1092;64262;-80
2021/08/05 09:20:01;;;;;;;10.17;6.20;;;;;;;20.69;71.98;100360.42;125085;1093;64268;-78
2021/08/05 09:22:29;;;;;;;12.93;7.83;;;;;;;20.80;73.56;100355.98;124957;1093;64659;-79
2021/08/05 09:24:56;;;;;;;8.40;5.60;;;;;;;20.91;71.85;100355.05;124804;1092;64384;-75
2021/08/05 09:27:31;;;;;;;9.80;7.07;;;;;;;21.03;73.06;100349.51;124906;1093;64342;-78
2021/08/05 09:30:00;;;;;;;8.67;6.57;;;;;;;21.23;72.86;100356.19;125040;1093;64317;-78
2021/08/05 09:32:29;;;;;;;12.13;6.27;;;;;;;21.50;72.03;100348.13;124796;1092;64235;-78
2021/08/05 09:35:07;;;;;;;7.90;5.77;;;;;;;21.76;70.99;100357.25;124814;1092;64345;-77
2021/08/05 09:37:41;;;;;;;8.23;6.40;;;;;;;21.98;69.75;100349.87;124909;1093;64229;-81
2021/08/05 09:40:14;;;;;;;8.78;6.20;;;;;;;22.09;69.20;100349.95;125047;1092;64272;-79
2021/08/05 09:43:01;;;;;;;9.77;7.40;;;;;;;22.19;68.71;100347.31;124939;1093;64272;-79
2021/08/05 09:45:36;;;;;;;6.97;5.80;;;;;;;22.46;68.83;100349.10;125900;1092;64185;-76
2021/08/05 09:48:03;;;;;;;7.27;5.90;;;;;;;22.60;68.55;100344.86;125076;1093;64668;-77
2021/08/05 09:50:31;;;;;;;21.83;8.27;;;;;;;22.74;67.68;100343.30;125208;1093;64329;-76
2021/08/05 09:53:09;;;;;;;8.67;6.50;;;;;;;22.84;65.98;100334.39;125016;1093;64272;-78
2021/08/05 09:55:37;;;;;;;6.73;6.03;;;;;;;22.90;65.14;100329.83;125251;1093;64271;-79
2021/08/05 09:58:08;;;;;;;8.87;7.93;;;;;;;22.92;66.22;100327.67;124902;1093;64271;-80
2021/08/05 10:00:55;;;;;;;8.73;7.30;;;;;;;22.94;65.18;100328.22;124825;1092;64425;-79
2021/08/05 10:03:33;;;;;;;7.67;6.47;;;;;;;22.99;65.72;100320.11;124927;1092;64262;-78
2021/08/05 10:06:05;;;;;;;9.90;7.63;;;;;;;22.99;65.09;100320.94;124895;1093;64297;-79
2021/08/05 10:08:41;;;;;;;7.90;7.10;;;;;;;23.05;64.84;100324.48;124843;1093;64648;-79
2021/08/05 10:11:09;;;;;;;6.50;5.90;;;;;;;23.03;63.71;100318.52;124815;1093;64335;-77
2021/08/05 10:13:39;;;;;;;6.73;6.03;;;;;;;22.92;62.70;100311.44;124844;1092;64163;-81
2021/08/05 10:16:09;;;;;;;9.57;8.30;;;;;;;22.96;64.58;100312.53;125102;1093;64197;-78
2021/08/05 10:18:37;;;;;;;7.47;5.23;;;;;;;;;;124935;1093;64876;-78
2021/08/05 10:21:08;;;;;;;6.83;6.13;;;;;;;22.87;64.40;100311.44;124819;1092;64249;-79
2021/08/05 10:23:42;;;;;;;6.50;5.90;;;;;;;22.91;65.27;100304.39;124957;1093;64298;-79
2021/08/05 10:26:10;;;;;;;7.07;6.37;;;;;;;23.05;64.80;100302.03;125041;1092;64335;-79
2021/08/05 10:28:39;;;;;;;5.10;3.45;;;;;;;23.09;63.11;100303.93;124898;1092;64368;-79
2021/08/05 10:31:10;;;;;;;6.87;5.43;;;;;;;23.19;64.03;100306.66;125101;1093;64269;-80
2021/08/05 10:33:38;;;;;;;11.63;9.20;;;;;;;23.24;62.96;100299.63;124971;1092;64277;-79
2021/08/05 10:36:06;;;;;;;8.67;7.70;;;;;;;23.29;63.55;100288.80;124816;1092;64353;-77
2021/08/05 10:38:35;;;;;;;7.97;6.73;;;;;;;23.37;63.17;100294.48;124925;1092;64342;-78
2021/08/05 10:41:02;;;;;;;8.50;6.37;;;;;;;23.47;62.26;100287.47;125018;1093;64910;-78
2021/08/05 10:43:30;;;;;;;8.13;7.20;;;;;;;23.56;61.93;100280.42;124961;1092;64406;-78
2021/08/05 10:45:57;;;;;;;7.50;5.93;;;;;;;23.68;61.84;100280.16;125045;1093;64272;-78
2021/08/05 10:48:24;;;;;;;7.07;6.00;;;;;;;23.79;61.36;100276.37;124887;1093;64268;-79
2021/08/05 10:50:52;;;;;;;5.20;4.67;;;;;;;23.86;59.65;100274.17;124863;1093;64304;-76
2021/08/05 10:53:31;;;;;;;7.30;5.50;;;;;;;23.98;60.35;100280.13;125139;1091;64172;-78
2021/08/05 10:56:19;;;;;;;5.00;4.40;;;;;;;24.07;59.44;100268.72;125058;1092;64269;-79
2021/08/05 10:59:09;;;;;;;6.33;5.73;;;;;;;24.22;60.16;100265.95;125147;1093;64175;-79
2021/08/05 11:01:47;;;;;;;8.73;7.37;;;;;;;24.35;58.91;100270.78;124944;1092;64291;-78
2021/08/05 11:04:30;;;;;;;6.80;6.10;;;;;;;24.53;58.80;100263.17;125107;1093;64364;-80
2021/08/05 11:07:32;;;;;;;6.40;5.63;;;;;;;24.58;58.47;100263.13;125240;1092;64231;-79
2021/08/05 11:10:19;;;;;;;6.77;6.03;;;;;;;24.49;55.92;100267.52;125045;1093;64297;-80
2021/08/05 11:12:49;;;;;;;7.00;6.30;;;;;;;24.36;56.44;100255.34;125308;1093;64242;-80
2021/08/05 11:15:25;;;;;;;9.03;7.37;;;;;;;24.36;57.76;100258.06;125035;1093;64384;-78
2021/08/05 11:18:17;;;;;;;7.90;6.23;;;;;;;24.41;57.52;100256.12;125134;1092;64417;-77
2021/08/05 11:20:50;;;;;;;6.67;5.90;;;;;;;24.54;57.84;100243.88;125163;1093;64368;-79
2021/08/05 11:23:34;;;;;;;6.27;5.37;;;;;;;24.61;56.52;100246.32;125189;1093;64211;-79
2021/08/05 11:26:06;;;;;;;;;;;;;;;24.69;55.66;100237.56;125143;1092;64295;-79
2021/08/05 11:28:53;;;;;;;6.47;5.70;;;;;;;24.78;55.19;100235.09;125135;1093;64160;-78
2021/08/05 11:31:23;;;;;;;6.67;5.87;;;;;;;25.05;56.44;100228.39;125190;1093;64404;-78